Terminal Aerodrome Forecast
Issued by NWS Cleveland, OH

Home | Current Version | Previous Version | Graphics & Text | Print | Product List | Glossary On
Versions: 1 2 3 4 5 6 7 8 9 10 11 12 13 14 15 16 17 18 19 20 21 22 23 24 25 26
112
FTUS41 KCLE 272339
TAFCLE
TAF
KCLE 272339Z 2800/0106 16008KT P6SM BKN050 OVC080
     FM280300 16006KT P6SM SCT050 BKN120
     FM281300 16008KT 5SM -SHRA OVC050
     FM281500 18010KT 5SM -SHRA OVC018
     FM281900 18015G22KT P6SM VCSH OVC018=

USA.gov is the U.S. government's official web portal to all federal, state and local government web resources and services.